createdAt,value
2016-06-15T00:00:05.503Z,61.77
2016-06-15T00:01:05.538Z,62.57
2016-06-15T00:02:05.556Z,62.77
2016-06-15T00:03:05.591Z,61.61
2016-06-15T00:04:05.609Z,61.71
2016-06-15T00:05:05.644Z,61.52
2016-06-15T00:06:05.662Z,61.61
2016-06-15T00:07:05.681Z,61.61
2016-06-15T00:08:05.746Z,62.09
2016-06-15T00:09:05.734Z,61.61
2016-06-15T00:10:05.769Z,61.22
2016-06-15T00:11:05.787Z,61.68
2016-06-15T00:12:05.822Z,61.9
2016-06-15T00:13:05.683Z,61.77
2016-06-15T00:14:05.859Z,62.09
2016-06-15T00:15:05.893Z,61.32
2016-06-15T00:16:05.928Z,61.71
2016-06-15T00:17:05.946Z,61.61
2016-06-15T00:18:05.965Z,61.61
2016-06-15T00:19:05.999Z,61.8
2016-06-15T00:20:06.018Z,61.61
2016-06-15T00:21:06.053Z,61.8
2016-06-15T00:22:06.071Z,61.8
2016-06-15T00:23:06.106Z,61.71
2016-06-15T00:24:06.123Z,61.52
2016-06-15T00:25:05.987Z,61.8
2016-06-15T00:26:06.176Z,61.61
2016-06-15T00:27:06.196Z,61.61
2016-06-15T00:28:06.229Z,61.61
2016-06-15T00:29:06.249Z,61.61
2016-06-15T00:30:06.282Z,61.61
2016-06-15T00:31:06.302Z,61.19
2016-06-15T00:32:06.320Z,61.22
2016-06-15T00:33:06.355Z,61.61
2016-06-15T00:34:06.389Z,61.8
2016-06-15T00:35:06.407Z,61.52
2016-06-15T00:36:06.474Z,61.71
2016-06-15T00:37:06.460Z,61.58
2016-06-15T00:38:06.495Z,61.22
2016-06-15T00:39:06.514Z,61.58
2016-06-15T00:40:06.533Z,61.52
2016-06-15T00:41:06.410Z,61.52
2016-06-15T00:42:06.586Z,61.52
2016-06-15T00:43:06.604Z,61.71
2016-06-15T00:44:06.639Z,61.9
2016-06-15T00:45:06.673Z,61.61
2016-06-15T00:46:06.691Z,61.61
2016-06-15T00:47:06.726Z,61.52
2016-06-15T00:48:06.744Z,61.52
2016-06-15T00:49:06.763Z,62.29
2016-06-15T00:50:06.797Z,61.71
2016-06-15T00:51:06.817Z,61.61
2016-06-15T00:52:06.834Z,61.61
2016-06-15T00:53:06.870Z,61.61
2016-06-15T00:54:06.888Z,61.61
2016-06-15T00:55:06.923Z,61.8
2016-06-15T00:56:06.957Z,61.61
2016-06-15T00:57:06.975Z,61.71
2016-06-15T00:58:07.025Z,61.71
2016-06-15T00:59:07.095Z,61.61
2016-06-15T01:00:07.151Z,61.61
2016-06-15T01:01:07.221Z,61.71
2016-06-15T01:02:07.307Z,61.61
2016-06-15T01:03:07.328Z,61.9
2016-06-15T01:04:07.360Z,61.61
2016-06-15T01:05:07.407Z,61.61
2016-06-15T01:06:07.454Z,61.8
2016-06-15T01:07:07.470Z,61.61
2016-06-15T01:08:07.510Z,61.71
2016-06-15T01:09:07.535Z,61.71
2016-06-15T01:10:07.573Z,61.77
2016-06-15T01:11:07.598Z,61.71
2016-06-15T01:12:07.636Z,62
2016-06-15T01:13:07.658Z,61.61
2016-06-15T01:14:07.677Z,61.71
2016-06-15T01:15:07.714Z,61.61
2016-06-15T01:16:07.750Z,61.61
2016-06-15T01:17:07.770Z,61.9
2016-06-15T01:18:07.821Z,61.61
2016-06-15T01:19:07.824Z,61.71
2016-06-15T01:20:08.344Z,61.58
2016-06-15T01:21:07.879Z,61.52
2016-06-15T01:22:07.899Z,61.71
2016-06-15T01:23:07.918Z,61.52
2016-06-15T01:24:07.952Z,61.68
2016-06-15T01:25:07.970Z,61.61
2016-06-15T01:26:08.005Z,61.61
2016-06-15T01:27:08.024Z,61.71
2016-06-15T01:28:08.058Z,61.71
2016-06-15T01:29:08.093Z,61.61
2016-06-15T01:30:08.110Z,61.8
2016-06-15T01:31:08.130Z,62.48
2016-06-15T01:32:08.163Z,62.45
2016-06-15T01:33:08.183Z,61.68
2016-06-15T01:34:08.216Z,61.61
2016-06-15T01:35:08.236Z,61.87
2016-06-15T01:36:08.253Z,61.71
2016-06-15T01:37:08.289Z,61.8
2016-06-15T01:38:08.307Z,61.61
2016-06-15T01:39:08.342Z,61.71
2016-06-15T01:40:08.360Z,61.8
2016-06-15T01:41:08.394Z,61.71
2016-06-15T01:42:08.413Z,61.32
2016-06-15T01:43:08.447Z,61.71
2016-06-15T01:44:08.483Z,61.61
2016-06-15T01:45:08.500Z,61.58
2016-06-15T01:46:08.550Z,61.61
2016-06-15T01:47:08.537Z,61.61
2016-06-15T01:48:08.573Z,61.71
2016-06-15T01:49:08.607Z,61.8
2016-06-15T01:50:08.626Z,61.8
2016-06-15T01:51:08.488Z,61.71
2016-06-15T01:52:08.678Z,61.8
2016-06-15T01:53:08.697Z,61.61
2016-06-15T01:54:08.716Z,61.8
2016-06-15T01:55:08.750Z,61.61
2016-06-15T01:56:08.784Z,61.8
2016-06-15T01:57:08.834Z,61.61
2016-06-15T01:58:08.821Z,61.9
2016-06-15T01:59:08.857Z,61.8
2016-06-15T02:00:08.719Z,61.71
2016-06-15T02:01:08.910Z,61.61
2016-06-15T02:02:08.928Z,61.61
2016-06-15T02:03:08.962Z,61.97
2016-06-15T02:04:08.981Z,61.61
2016-06-15T02:05:09.375Z,61.71
2016-06-15T02:06:09.050Z,61.61
2016-06-15T02:07:09.053Z,61.71
2016-06-15T02:08:09.087Z,61.61
2016-06-15T02:09:09.105Z,61.71
2016-06-15T02:10:09.140Z,62.35
2016-06-15T02:11:09.159Z,62.35
2016-06-15T02:12:09.194Z,62.45
2016-06-15T02:13:09.228Z,61.71
2016-06-15T02:14:09.246Z,62.64
2016-06-15T02:15:09.109Z,62.74
2016-06-15T02:16:09.299Z,62.54
2016-06-15T02:17:09.318Z,62.26
2016-06-15T02:18:09.337Z,61.77
2016-06-15T02:19:09.371Z,61.58
2016-06-15T02:20:10.124Z,61.77
2016-06-15T02:21:09.736Z,61.49
2016-06-15T02:22:09.443Z,61.49
2016-06-15T02:23:09.477Z,61.8
2016-06-15T02:24:09.496Z,61.61
2016-06-15T02:25:09.529Z,61.49
2016-06-15T02:26:09.548Z,61.61
2016-06-15T02:27:09.582Z,61.58
2016-06-15T02:28:09.602Z,62.35
2016-06-15T02:29:09.635Z,62.35
2016-06-15T02:30:09.655Z,61.58
2016-06-15T02:31:09.672Z,61.58
2016-06-15T02:32:09.708Z,61.58
2016-06-15T02:33:09.726Z,61.58
2016-06-15T02:34:09.761Z,62.54
2016-06-15T02:35:10.045Z,62.16
2016-06-15T02:36:09.813Z,62.45
2016-06-15T02:37:09.832Z,62.26
2016-06-15T02:38:09.866Z,62.45
2016-06-15T02:39:09.885Z,62.35
2016-06-15T02:40:09.904Z,62.54
2016-06-15T02:41:09.939Z,61.68
2016-06-15T02:42:09.956Z,61.49
2016-06-15T02:43:09.992Z,61.68
2016-06-15T02:44:10.010Z,61.87
2016-06-15T02:45:10.045Z,61.61
2016-06-15T02:46:10.063Z,61.68
2016-06-15T02:47:10.082Z,62.35
2016-06-15T02:48:10.116Z,62.26
2016-06-15T02:49:10.150Z,62.45
2016-06-15T02:50:10.201Z,62.35
2016-06-15T02:51:10.531Z,62.54
2016-06-15T02:52:10.223Z,61.49
2016-06-15T02:53:10.240Z,61.68
2016-06-15T02:54:10.276Z,61.8
2016-06-15T02:55:10.294Z,61.71
2016-06-15T02:56:10.329Z,62.64
2016-06-15T02:57:10.346Z,62.45
2016-06-15T02:58:10.366Z,62.35
2016-06-15T02:59:10.415Z,62.45
2016-06-15T03:00:10.419Z,62.64
2016-06-15T03:01:10.469Z,62.64
2016-06-15T03:02:10.488Z,62.45
2016-06-15T03:03:10.506Z,62.35
2016-06-15T03:04:10.524Z,62.45
2016-06-15T03:05:10.559Z,61.68
2016-06-15T03:06:10.578Z,61.68
2016-06-15T03:07:10.613Z,61.68
2016-06-15T03:08:10.631Z,61.49
2016-06-15T03:09:10.650Z,61.77
2016-06-15T03:10:10.683Z,62.26
2016-06-15T03:11:10.703Z,62.26
2016-06-15T03:12:10.737Z,61.87
2016-06-15T03:13:10.756Z,61.49
2016-06-15T03:14:10.790Z,61.68
2016-06-15T03:15:10.808Z,62.29
2016-06-15T03:16:10.843Z,61.58
2016-06-15T03:17:10.862Z,62.06
2016-06-15T03:18:10.896Z,62.06
2016-06-15T03:19:10.914Z,62.35
2016-06-15T03:20:10.933Z,61.97
2016-06-15T03:21:11.420Z,61.58
2016-06-15T03:22:10.986Z,61.87
2016-06-15T03:23:11.021Z,61.71
2016-06-15T03:24:11.039Z,61.52
2016-06-15T03:25:11.058Z,61.68
2016-06-15T03:26:11.092Z,61.58
2016-06-15T03:27:11.127Z,61.68
2016-06-15T03:28:11.145Z,61.87
2016-06-15T03:29:11.164Z,61.8
2016-06-15T03:30:11.198Z,61.71
2016-06-15T03:31:11.217Z,61.19
2016-06-15T03:32:11.251Z,61.68
2016-06-15T03:33:11.270Z,61.87
2016-06-15T03:34:11.305Z,61.61
2016-06-15T03:35:11.323Z,61.61
2016-06-15T03:36:11.405Z,61.87
2016-06-15T03:37:11.376Z,61.49
2016-06-15T03:38:11.426Z,61.49
2016-06-15T03:39:11.429Z,62.16
2016-06-15T03:40:11.448Z,62.06
2016-06-15T03:41:11.482Z,62.26
2016-06-15T03:42:11.532Z,61.58
2016-06-15T03:43:11.535Z,61.9
2016-06-15T03:44:11.554Z,61.61
2016-06-15T03:45:11.573Z,61.8
2016-06-15T03:46:11.607Z,61.71
2016-06-15T03:47:11.626Z,61.61
2016-06-15T03:48:11.659Z,61.58
2016-06-15T03:49:11.679Z,61.49
2016-06-15T03:50:11.712Z,61.61
2016-06-15T03:51:11.748Z,61.71
2016-06-15T03:52:11.765Z,61.58
2016-06-15T03:53:11.785Z,61.52
2016-06-15T03:54:11.802Z,61.61
2016-06-15T03:55:11.838Z,61.58
2016-06-15T03:56:11.856Z,61.61
2016-06-15T03:57:11.891Z,61.68
2016-06-15T03:58:11.910Z,61.32
2016-06-15T03:59:11.943Z,61.32
2016-06-15T04:00:11.962Z,61.61
2016-06-15T04:01:12.044Z,61.52
2016-06-15T04:02:12.031Z,61.52
2016-06-15T04:03:12.050Z,61.58
2016-06-15T04:04:12.068Z,61.68
2016-06-15T04:05:12.087Z,61.68
2016-06-15T04:06:12.137Z,61.77
2016-06-15T04:07:12.156Z,61.52
2016-06-15T04:08:12.175Z,61.58
2016-06-15T04:09:12.193Z,61.77
2016-06-15T04:10:12.227Z,61.49
2016-06-15T04:11:12.246Z,61.77
2016-06-15T04:12:12.280Z,61.71
2016-06-15T04:13:12.299Z,61.39
2016-06-15T04:14:12.333Z,61.71
2016-06-15T04:15:12.353Z,61.68
2016-06-15T04:16:12.370Z,61.52
2016-06-15T04:17:12.406Z,61.04
2016-06-15T04:18:12.424Z,61.52
2016-06-15T04:19:12.459Z,61.13
2016-06-15T04:20:12.477Z,61.22
2016-06-15T04:21:12.543Z,60.75
2016-06-15T04:22:12.546Z,61.52
2016-06-15T04:23:12.549Z,61.61
2016-06-15T04:24:12.584Z,61.8
2016-06-15T04:25:12.602Z,61.68
2016-06-15T04:26:12.637Z,61.77
2016-06-15T04:27:12.654Z,61.22
2016-06-15T04:28:12.690Z,61.13
2016-06-15T04:29:12.708Z,61.42
2016-06-15T04:30:12.743Z,61.04
2016-06-15T04:31:12.761Z,61.22
2016-06-15T04:32:12.780Z,61.68
2016-06-15T04:33:12.814Z,61.61
2016-06-15T04:34:12.848Z,61.9
2016-06-15T04:35:12.867Z,61.58
2016-06-15T04:36:13.292Z,61.13
2016-06-15T04:37:12.920Z,61.52
2016-06-15T04:38:12.938Z,61.13
2016-06-15T04:39:12.957Z,61.13
2016-06-15T04:40:12.992Z,61.42
2016-06-15T04:41:13.010Z,61.04
2016-06-15T04:42:13.060Z,61.22
2016-06-15T04:43:13.063Z,61.32
2016-06-15T04:44:13.097Z,61.22
2016-06-15T04:45:13.116Z,61.42
2016-06-15T04:46:13.151Z,60.84
2016-06-15T04:47:13.169Z,61.13
2016-06-15T04:48:13.188Z,61.32
2016-06-15T04:49:13.222Z,60.94
2016-06-15T04:50:13.241Z,61.32
2016-06-15T04:51:13.557Z,61.22
2016-06-15T04:52:13.294Z,60.46
2016-06-15T04:53:13.328Z,60.65
2016-06-15T04:54:13.347Z,61.32
2016-06-15T04:55:13.381Z,61.42
2016-06-15T04:56:13.400Z,60.55
2016-06-15T04:57:13.435Z,60.65
2016-06-15T04:58:13.453Z,60.75
2016-06-15T04:59:13.488Z,60.55
2016-06-15T05:00:13.505Z,60.75
2016-06-15T05:01:13.525Z,60.75
2016-06-15T05:02:13.559Z,61.22
2016-06-15T05:03:13.422Z,60.65
2016-06-15T05:04:13.612Z,60.75
2016-06-15T05:05:13.631Z,60.46
2016-06-15T05:06:14.040Z,60.75
2016-06-15T05:07:13.684Z,60.65
2016-06-15T05:08:13.703Z,60.27
2016-06-15T05:09:13.737Z,59.78
2016-06-15T05:10:13.756Z,59.69
2016-06-15T05:11:13.789Z,59.97
2016-06-15T05:12:13.809Z,60.27
2016-06-15T05:13:13.843Z,59.88
2016-06-15T05:14:13.862Z,59.88
2016-06-15T05:15:13.896Z,60.07
2016-06-15T05:16:13.915Z,60.68
2016-06-15T05:17:13.949Z,60.27
2016-06-15T05:18:13.983Z,59.97
2016-06-15T05:19:14.003Z,59.88
2016-06-15T05:20:14.021Z,60.1
2016-06-15T05:21:14.087Z,59.04
2016-06-15T05:22:14.073Z,58.59
2016-06-15T05:23:14.093Z,58.47
2016-06-15T05:24:14.126Z,58.75
2016-06-15T05:25:14.146Z,58.56
2016-06-15T05:26:14.179Z,58.08
2016-06-15T05:27:14.214Z,57.53
2016-06-15T05:28:14.233Z,57.05
2016-06-15T05:29:14.252Z,57.34
2016-06-15T05:30:14.286Z,57.53
2016-06-15T05:31:14.305Z,57.53
2016-06-15T05:32:14.323Z,57.53
2016-06-15T05:33:14.357Z,57.14
2016-06-15T05:34:14.376Z,57.43
2016-06-15T05:35:14.411Z,57.43
2016-06-15T05:36:14.445Z,57.62
2016-06-15T05:37:14.463Z,57.43
2016-06-15T05:38:14.482Z,57.05
2016-06-15T05:39:14.516Z,56.95
2016-06-15T05:40:14.535Z,56.88
2016-06-15T05:41:14.570Z,56.21
2016-06-15T05:42:14.589Z,55.82
2016-06-15T05:43:14.637Z,55.92
2016-06-15T05:44:14.641Z,55.54
2016-06-15T05:45:14.676Z,55.73
2016-06-15T05:46:14.695Z,55.92
2016-06-15T05:47:14.729Z,56.3
2016-06-15T05:48:14.748Z,56.21
2016-06-15T05:49:14.781Z,56.88
2016-06-15T05:50:14.800Z,56.49
2016-06-15T05:51:14.694Z,56.79
2016-06-15T05:52:14.854Z,56.88
2016-06-15T05:53:14.887Z,56.21
2016-06-15T05:54:14.907Z,56.3
2016-06-15T05:55:14.924Z,56.49
2016-06-15T05:56:14.960Z,56.4
2016-06-15T05:57:14.994Z,56.4
2016-06-15T05:58:15.013Z,56.49
2016-06-15T05:59:15.031Z,56.49
2016-06-15T06:00:15.065Z,56.49
2016-06-15T06:01:15.084Z,56.3
2016-06-15T06:02:15.119Z,56.21
2016-06-15T06:03:15.153Z,56.59
2016-06-15T06:04:15.172Z,56.49
2016-06-15T06:05:15.205Z,56.49
2016-06-15T06:06:15.646Z,56.3
2016-06-15T06:07:15.259Z,56.4
2016-06-15T06:08:15.278Z,56.3
2016-06-15T06:09:15.311Z,56.3
2016-06-15T06:10:15.346Z,56.3
2016-06-15T06:11:15.349Z,56.4
2016-06-15T06:12:15.384Z,56.4
2016-06-15T06:13:15.419Z,56.4
2016-06-15T06:14:15.437Z,56.3
2016-06-15T06:15:15.472Z,56.4
2016-06-15T06:16:15.505Z,56.3
2016-06-15T06:17:15.525Z,56.01
2016-06-15T06:18:15.542Z,55.92
2016-06-15T06:19:15.578Z,56.01
2016-06-15T06:20:15.596Z,55.92
2016-06-15T06:21:15.474Z,55.82
2016-06-15T06:22:15.665Z,55.73
2016-06-15T06:23:15.683Z,55.44
2016-06-15T06:24:15.546Z,55.63
2016-06-15T06:25:15.736Z,55.82
2016-06-15T06:26:15.770Z,55.82
2016-06-15T06:27:15.789Z,55.73
2016-06-15T06:28:15.808Z,55.82
2016-06-15T06:29:15.843Z,55.73
2016-06-15T06:30:15.861Z,55.82
2016-06-15T06:31:15.896Z,55.15
2016-06-15T06:32:15.913Z,55.63
2016-06-15T06:33:15.949Z,55.82
2016-06-15T06:34:15.967Z,55.63
2016-06-15T06:35:16.002Z,55.63
2016-06-15T06:36:16.036Z,55.73
2016-06-15T06:37:16.053Z,55.24
2016-06-15T06:38:16.073Z,55.44
2016-06-15T06:39:16.107Z,55.24
2016-06-15T06:40:16.142Z,56.01
2016-06-15T06:41:16.160Z,55.82
2016-06-15T06:42:16.179Z,55.92
2016-06-15T06:43:16.213Z,55.73
2016-06-15T06:44:16.247Z,55.82
2016-06-15T06:45:16.267Z,56.21
2016-06-15T06:46:16.300Z,56.3
2016-06-15T06:47:16.320Z,56.3
2016-06-15T06:48:16.353Z,56.4
2016-06-15T06:49:16.373Z,56.49
2016-06-15T06:50:16.407Z,56.4
2016-06-15T06:51:16.988Z,56.3
2016-06-15T06:52:16.491Z,56.88
2016-06-15T06:53:16.478Z,56.88
2016-06-15T06:54:16.513Z,56.79
2016-06-15T06:55:16.532Z,57.24
2016-06-15T06:56:16.566Z,56.66
2016-06-15T06:57:16.679Z,57.24
2016-06-15T06:58:16.650Z,56.85
2016-06-15T06:59:16.654Z,57.14
2016-06-15T07:00:16.672Z,56.88
2016-06-15T07:01:16.707Z,56.98
2016-06-15T07:02:16.725Z,56.49
2016-06-15T07:03:16.744Z,56.49
2016-06-15T07:04:16.778Z,56.4
2016-06-15T07:05:16.812Z,56.49
2016-06-15T07:06:17.393Z,56.3
2016-06-15T07:07:16.865Z,56.49
2016-06-15T07:08:16.899Z,56.3
2016-06-15T07:09:16.918Z,56.49
2016-06-15T07:10:16.937Z,56.4
2016-06-15T07:11:16.972Z,56.4
2016-06-15T07:12:17.052Z,56.88
2016-06-15T07:13:16.869Z,56.59
2016-06-15T07:14:17.042Z,56.59
2016-06-15T07:15:17.078Z,55.92
2016-06-15T07:16:17.096Z,55.34
2016-06-15T07:17:17.131Z,55.18
2016-06-15T07:18:17.149Z,55.27
2016-06-15T07:19:17.183Z,54.79
2016-06-15T07:20:17.202Z,54.6
2016-06-15T07:21:17.956Z,53.63
2016-06-15T07:22:17.271Z,53.27
2016-06-15T07:23:17.320Z,51.27
2016-06-15T07:24:17.323Z,49.27
2016-06-15T07:25:17.343Z,47.41
2016-06-15T07:26:17.376Z,48.3
2016-06-15T07:27:17.396Z,47.28
2016-06-15T07:28:17.430Z,45.95
2016-06-15T07:29:17.449Z,45.61
2016-06-15T07:30:17.483Z,46.19
2016-06-15T07:31:17.517Z,48.11
2016-06-15T07:32:17.536Z,49.02
2016-06-15T07:33:17.570Z,47.48
2016-06-15T07:34:17.604Z,46.63
2016-06-15T07:35:17.623Z,47.14
2016-06-15T07:36:18.048Z,48.08
2016-06-15T07:37:17.910Z,48.64
2016-06-15T07:38:17.710Z,49.32
2016-06-15T07:39:17.729Z,49.8
2016-06-15T07:40:17.764Z,49.1
2016-06-15T07:41:17.814Z,48.44
2016-06-15T07:42:17.816Z,48.35
2016-06-15T07:43:17.882Z,48.35
2016-06-15T07:44:17.885Z,48.64
2016-06-15T07:45:17.904Z,48.83
2016-06-15T07:46:17.938Z,48.44
2016-06-15T07:47:17.957Z,48.54
2016-06-15T07:48:17.991Z,48.54
2016-06-15T07:49:18.010Z,48.25
2016-06-15T07:50:18.044Z,46.15
2016-06-15T07:51:18.578Z,44.74
2016-06-15T07:52:18.114Z,44.76
2016-06-15T07:53:18.131Z,43.41
2016-06-15T07:54:18.165Z,42.46
2016-06-15T07:55:18.185Z,41.89
2016-06-15T07:56:18.219Z,42.48
2016-06-15T07:57:18.269Z,43.43
2016-06-15T07:58:18.287Z,42.92
2016-06-15T07:59:18.306Z,43.41
2016-06-15T08:00:18.341Z,42.75
2016-06-15T08:01:18.359Z,43.35
2016-06-15T08:02:18.722Z,44.01
2016-06-15T08:03:18.428Z,45.03
2016-06-15T08:04:18.446Z,45.42
2016-06-15T08:05:18.481Z,46.17
2016-06-15T08:06:18.938Z,46.66
2016-06-15T08:07:19.346Z,48.01
2016-06-15T08:08:18.569Z,47.04
2016-06-15T08:09:18.587Z,47.14
2016-06-15T08:10:18.621Z,47.72
2016-06-15T08:11:18.672Z,48.37
2016-06-15T08:12:18.674Z,48.86
2016-06-15T08:13:18.709Z,49.27
2016-06-15T08:14:18.727Z,48.95
2016-06-15T08:15:18.777Z,49.63
2016-06-15T08:16:18.797Z,49.85
2016-06-15T08:17:18.830Z,50.52
2016-06-15T08:18:18.849Z,51.5
2016-06-15T08:19:18.883Z,50.92
2016-06-15T08:20:18.917Z,51.5
2016-06-15T08:21:18.796Z,51.56
2016-06-15T08:22:21.470Z,51.88
2016-06-15T08:23:19.005Z,52.46
2016-06-15T08:24:19.024Z,52.24
2016-06-15T08:25:19.058Z,53.31
2016-06-15T08:26:19.077Z,53.31
2016-06-15T08:27:19.111Z,52.73
2016-06-15T08:28:19.161Z,53.99
2016-06-15T08:29:19.164Z,53.69
2016-06-15T08:30:19.198Z,53.89
2016-06-15T08:31:19.233Z,52.56
2016-06-15T08:32:19.252Z,52.1
2016-06-15T08:33:19.285Z,52
2016-06-15T08:34:19.321Z,52.46
2016-06-15T08:35:19.339Z,53.17
2016-06-15T08:36:19.374Z,53.17
2016-06-15T08:37:19.392Z,53.63
2016-06-15T08:38:19.425Z,54.11
2016-06-15T08:39:19.461Z,54.39
2016-06-15T08:40:19.479Z,54.39
2016-06-15T08:41:19.514Z,54.88
2016-06-15T08:42:19.548Z,54.59
2016-06-15T08:43:19.566Z,55.27
2016-06-15T08:44:19.601Z,55.56
2016-06-15T08:45:19.636Z,56.04
2016-06-15T08:46:19.669Z,55.92
2016-06-15T08:47:19.533Z,56.11
2016-06-15T08:48:19.722Z,56.5
2016-06-15T08:49:19.584Z,56.6
2016-06-15T08:50:19.776Z,57.08
2016-06-15T08:51:19.809Z,57.37
2016-06-15T08:52:20.048Z,57.28
2016-06-15T08:53:19.862Z,57.37
2016-06-15T08:54:19.913Z,55.24
2016-06-15T08:55:19.916Z,53.5
2016-06-15T08:56:19.950Z,51.37
2016-06-15T08:57:19.984Z,51.76
2016-06-15T08:58:20.003Z,51.86
2016-06-15T08:59:19.881Z,51.86
2016-06-15T09:00:25.150Z,51.86
2016-06-15T09:01:24.966Z,51.73
2016-06-15T09:02:20.122Z,52.02
2016-06-15T09:03:20.141Z,51.95
2016-06-15T09:04:20.175Z,52.53
2016-06-15T09:05:20.210Z,52.22
2016-06-15T09:06:20.244Z,51.66
2016-06-15T09:07:20.450Z,51.76
2016-06-15T09:08:20.297Z,51.66
2016-06-15T09:09:20.316Z,52.24
2016-06-15T09:10:20.365Z,51.76
2016-06-15T09:11:20.384Z,51.76
2016-06-15T09:12:20.403Z,51.56
2016-06-15T09:13:25.089Z,51.78
2016-06-15T09:14:20.450Z,51.3
2016-06-15T09:15:20.483Z,51.3
2016-06-15T09:16:20.518Z,51.3
2016-06-15T09:17:20.568Z,51.5
2016-06-15T09:18:20.587Z,51.68
2016-06-15T09:19:20.621Z,51.68
2016-06-15T09:20:20.639Z,51.5
2016-06-15T09:21:20.659Z,51.98
2016-06-15T09:22:20.708Z,51.98
2016-06-15T09:23:20.727Z,51.78
2016-06-15T09:24:20.604Z,51.98
2016-06-15T09:25:20.780Z,52.08
2016-06-15T09:26:20.814Z,51.98
2016-06-15T09:27:20.833Z,51.68
2016-06-15T09:28:20.867Z,52.66
2016-06-15T09:29:20.927Z,52.36
2016-06-15T09:30:20.930Z,52.27
2016-06-15T09:31:20.949Z,52.75
2016-06-15T09:32:20.984Z,52.46
2016-06-15T09:33:21.018Z,52.46
2016-06-15T09:34:21.067Z,52.36
2016-06-15T09:35:21.087Z,52.08
2016-06-15T09:36:21.105Z,52.27
2016-06-15T09:37:21.139Z,51.78
2016-06-15T09:38:21.157Z,51.81
2016-06-15T09:39:21.192Z,51.88
2016-06-15T09:40:21.211Z,51.81
2016-06-15T09:41:21.245Z,51.72
2016-06-15T09:42:21.295Z,51.32
2016-06-15T09:43:21.314Z,51.32
2016-06-15T09:44:21.333Z,51.52
2016-06-15T09:45:21.368Z,51.72
2016-06-15T09:46:21.401Z,52
2016-06-15T09:47:21.420Z,51.78
2016-06-15T09:48:21.454Z,52.46
2016-06-15T09:49:21.333Z,52.39
2016-06-15T09:50:21.538Z,52.49
2016-06-15T09:51:21.542Z,52.78
2016-06-15T09:52:22.154Z,52.39
2016-06-15T09:53:21.611Z,52.29
2016-06-15T09:54:21.628Z,52.68
2016-06-15T09:55:21.648Z,52.27
2016-06-15T09:56:21.682Z,53.07
2016-06-15T09:57:21.716Z,52.85
2016-06-15T09:58:21.751Z,53.33
2016-06-15T09:59:21.770Z,53.14
2016-06-15T10:00:21.803Z,53.23
2016-06-15T10:01:21.838Z,53.23
2016-06-15T10:02:21.856Z,53.04
2016-06-15T10:03:21.891Z,52.95
2016-06-15T10:04:21.944Z,52.85
2016-06-15T10:05:22.002Z,52.85
2016-06-15T10:06:22.077Z,52.95
2016-06-15T10:07:22.152Z,53.17
2016-06-15T10:08:22.210Z,53.23
2016-06-15T10:09:22.272Z,53.45
2016-06-15T10:10:22.321Z,52.97
2016-06-15T10:11:22.353Z,53.04
2016-06-15T10:12:22.418Z,53.36
2016-06-15T10:13:22.436Z,53.17
2016-06-15T10:14:22.480Z,53.33
2016-06-15T10:15:22.519Z,53.36
2016-06-15T10:16:28.918Z,53.14
2016-06-15T10:17:22.583Z,53.23
2016-06-15T10:18:22.935Z,53.04
2016-06-15T10:19:22.660Z,53.43
2016-06-15T10:20:22.681Z,53.91
2016-06-15T10:21:22.717Z,53.72
2016-06-15T10:22:23.316Z,53.53
2016-06-15T10:23:22.774Z,53.72
2016-06-15T10:24:22.809Z,53.63
2016-06-15T10:25:22.845Z,53.63
2016-06-15T10:26:22.896Z,53.33
2016-06-15T10:27:22.898Z,53.04
2016-06-15T10:28:22.933Z,53.14
2016-06-15T10:29:22.952Z,53.14
2016-06-15T10:30:22.987Z,53.33
2016-06-15T10:31:23.021Z,53.14
2016-06-15T10:32:23.056Z,52.95
2016-06-15T10:33:23.075Z,53.04
2016-06-15T10:34:23.110Z,52.75
2016-06-15T10:35:24.519Z,52.85
2016-06-15T10:36:28.538Z,52.95
2016-06-15T10:37:34.417Z,52.95
2016-06-15T10:38:40.185Z,52.95
2016-06-15T10:39:27.422Z,52.95
2016-06-15T10:40:37.317Z,52.95
2016-06-15T10:41:30.882Z,53.33
2016-06-15T10:42:56.948Z,53.33
2016-06-15T10:43:46.685Z,53.23
2016-06-15T10:44:46.735Z,53.14
2016-06-15T10:45:53.894Z,53.33
2016-06-15T10:47:16.166Z,53.14
2016-06-15T10:48:12.091Z,52.85
2016-06-15T10:49:07.481Z,52.95
2016-06-15T10:50:14.973Z,52.85
2016-06-15T10:51:18.241Z,52.75
2016-06-15T10:52:27.869Z,52.75
2016-06-15T10:54:02.919Z,52.75
2016-06-15T10:55:51.441Z,52.75
2016-06-15T10:56:51.459Z,52.66
2016-06-15T10:57:51.494Z,52.75
2016-06-15T10:58:51.528Z,51.68
2016-06-15T10:59:51.563Z,51.98
2016-06-15T11:00:51.582Z,51.68
2016-06-15T11:01:51.600Z,51.98
2016-06-15T11:02:51.635Z,51.88
2016-06-15T11:03:51.669Z,51.88
2016-06-15T11:04:51.687Z,51.78
2016-06-15T11:05:51.722Z,52.08
2016-06-15T11:06:51.757Z,52.27
2016-06-15T11:07:51.634Z,52.66
2016-06-15T11:08:51.809Z,52.27
2016-06-15T11:09:51.844Z,52.46
2016-06-15T11:10:51.877Z,51.88
2016-06-15T11:11:51.897Z,51.95
2016-06-15T11:12:51.931Z,52.34
2016-06-15T11:13:51.965Z,52.92
2016-06-15T11:14:51.983Z,53.31
2016-06-15T11:15:52.018Z,53.21
2016-06-15T11:16:52.099Z,53.47
2016-06-15T11:17:52.087Z,53.19
2016-06-15T11:18:52.106Z,52.8
2016-06-15T11:19:52.140Z,52.41
2016-06-15T11:20:52.159Z,52.99
2016-06-15T11:21:52.272Z,53.77
2016-06-15T11:22:52.227Z,53.09
2016-06-15T11:23:52.245Z,53.86
2016-06-15T11:24:52.281Z,54.63
2016-06-15T11:25:52.298Z,54.73
2016-06-15T11:26:52.334Z,54.05
2016-06-15T11:27:52.368Z,54.73
2016-06-15T11:28:52.401Z,55.02
2016-06-15T11:29:52.421Z,53.67
2016-06-15T11:30:52.439Z,53.55
2016-06-15T11:31:52.474Z,54.51
2016-06-15T11:32:52.492Z,54.87
2016-06-15T11:33:52.526Z,55.67
2016-06-15T11:34:52.576Z,55.57
2016-06-15T11:35:52.596Z,54.9
2016-06-15T11:36:52.615Z,55.47
2016-06-15T11:37:52.679Z,55.19
2016-06-15T11:38:52.682Z,54.99
2016-06-15T11:39:52.716Z,54.32
2016-06-15T11:40:52.719Z,55.19
2016-06-15T11:41:52.755Z,55.19
2016-06-15T11:42:52.648Z,55.29
2016-06-15T11:43:52.823Z,55.29
2016-06-15T11:44:52.842Z,55.29
2016-06-15T11:45:52.876Z,55.67
2016-06-15T11:46:52.896Z,55.38
2016-06-15T11:47:52.929Z,55.67
2016-06-15T11:48:52.963Z,55.67
2016-06-15T11:49:52.983Z,55.67
2016-06-15T11:50:53.016Z,55.93
2016-06-15T11:51:53.036Z,55.93
2016-06-15T11:52:53.070Z,55.83
2016-06-15T11:53:53.104Z,56.71
2016-06-15T11:54:53.123Z,56.22
2016-06-15T11:55:53.156Z,56.41
2016-06-15T11:56:53.176Z,56.8
2016-06-15T11:57:53.225Z,56.99
2016-06-15T11:58:53.244Z,56.8
2016-06-15T11:59:53.279Z,56.99
2016-06-15T12:00:53.297Z,57.09
2016-06-15T12:01:53.317Z,57.16
2016-06-15T12:02:53.351Z,57.19
2016-06-15T12:03:53.369Z,56.87
2016-06-15T12:04:53.404Z,57.16
2016-06-15T12:05:53.421Z,57.16
2016-06-15T12:06:53.457Z,57.35
2016-06-15T12:07:54.130Z,57.06
2016-06-15T12:08:53.525Z,56.96
2016-06-15T12:09:53.544Z,56.96
2016-06-15T12:10:53.562Z,57.19
2016-06-15T12:11:53.612Z,57.06
2016-06-15T12:12:53.646Z,57.19
2016-06-15T12:13:53.681Z,57.06
2016-06-15T12:14:53.685Z,57.84
2016-06-15T12:15:53.703Z,57.26
2016-06-15T12:16:53.799Z,57.64
2016-06-15T12:17:53.771Z,58.03
2016-06-15T12:18:53.837Z,57.74
2016-06-15T12:19:53.825Z,57.45
2016-06-15T12:20:53.843Z,57.57
2016-06-15T12:21:53.878Z,58.06
2016-06-15T12:22:54.067Z,57.57
2016-06-15T12:23:53.930Z,58.06
2016-06-15T12:24:53.965Z,57.57
2016-06-15T12:25:53.827Z,57.57
2016-06-15T12:26:54.018Z,57.96
2016-06-15T12:27:54.036Z,57.67
2016-06-15T12:28:54.070Z,57.57
2016-06-15T12:29:54.090Z,57.77
2016-06-15T12:30:54.124Z,57.67
2016-06-15T12:31:54.159Z,57.87
2016-06-15T12:32:54.176Z,57.96
2016-06-15T12:33:54.210Z,57.48
2016-06-15T12:34:54.261Z,56.99
2016-06-15T12:35:54.264Z,56.99
2016-06-15T12:36:54.282Z,57.29
2016-06-15T12:37:54.958Z,57.19
2016-06-15T12:38:54.351Z,56.9
2016-06-15T12:39:54.370Z,57.19
2016-06-15T12:40:54.405Z,56.99
2016-06-15T12:41:54.439Z,57.03
2016-06-15T12:42:54.457Z,57.03
2016-06-15T12:43:54.491Z,57.12
2016-06-15T12:44:54.511Z,57.41
2016-06-15T12:45:54.545Z,57.31
2016-06-15T12:46:54.580Z,56.9
2016-06-15T12:47:54.598Z,57.31
2016-06-15T12:48:54.616Z,55.93
2016-06-15T12:49:54.651Z,56.03
2016-06-15T12:50:54.685Z,55.93
2016-06-15T12:51:54.704Z,55.65
2016-06-15T12:52:54.738Z,55.55
2016-06-15T12:53:54.772Z,55.45
2016-06-15T12:54:54.792Z,55.26
2016-06-15T12:55:54.841Z,55.07
2016-06-15T12:56:54.844Z,54.29
2016-06-15T12:57:54.878Z,54.41